Longueuil, Canada
Current Conditions -  °F | °C
As of 8:00 PM on Friday 19 Dec 2014 (Local Time) from CYHU Reporting Station
Clear Clear  
Wind Chill: 11°   Ceiling: Unl
Heat Index: 19°   Visibility: 9mi
Dew Point: 12°   Wind: 6mph
Humidity: 74%   Direction: 250°WSW
Pressure: 30.22"   Gusts: NA
Location:  45.54°N, 73.49°W
Report Text: CYHU 200100Z AUTO 25005KT 9SM CLR M07/M11 A3022 RMK SLP235
Loading
Personal Weather Stations






























Interactive Weather Map New forecast layout! Learn more

10-Day Weather Forecast

Advertisements
Track Severe Weather on mobile